Time;durP1;ratioP1;P1;durP2;ratioP2;P2;SDS_P1;SDS_P2;PMS_P1;PMS_P2;Temp;Humidity;BMP_temperature;BMP_pressure;BME280_temperature;BME280_humidity;BME280_pressure;Samples;Min_cycle;Max_cycle;Signal;HPM_P1;HPM_P2
2023/01/23 00:01:17;;;;;;;21.05;12.57;;;;;;;4.45;64.95;103410.31;5039859;28;20052;-64
2023/01/23 00:03:45;;;;;;;22.20;12.00;;;;;;;4.35;65.01;103394.19;5046381;28;20041;-64
2023/01/23 00:06:15;;;;;;;19.92;12.18;;;;;;;4.43;65.23;103415.75;5043697;28;20041;-64
2023/01/23 00:08:45;;;;;;;22.42;12.50;;;;;;;4.44;65.00;103409.47;5047985;28;20124;-64
2023/01/23 00:11:15;;;;;;;19.48;11.90;;;;;;;4.42;64.96;103400.75;5048495;28;20081;-64
2023/01/23 00:13:43;;;;;;;22.88;12.98;;;;;;;4.43;65.12;103398.94;5049858;28;20052;-63
2023/01/23 00:16:13;;;;;;;16.13;11.68;;;;;;;4.41;65.47;103398.19;5054691;28;20047;-64
2023/01/23 00:18:41;;;;;;;17.95;12.45;;;;;;;4.40;65.05;103401.81;5045518;28;20077;-64
2023/01/23 00:21:12;;;;;;;20.98;12.25;;;;;;;4.38;65.77;103401.09;5038448;28;20057;-63
2023/01/23 00:23:44;;;;;;;19.40;12.73;;;;;;;4.35;65.19;103404.84;5049267;28;20057;-64
2023/01/23 00:26:15;;;;;;;19.65;11.82;;;;;;;4.38;66.01;103398.44;5044926;28;20216;-64
2023/01/23 00:28:43;;;;;;;21.83;12.70;;;;;;;4.35;65.43;103396.84;5050842;28;20059;-63
2023/01/23 00:31:14;;;;;;;20.27;11.68;;;;;;;4.34;65.73;103396.97;5042477;28;20136;-64
2023/01/23 00:33:43;;;;;;;20.35;12.63;;;;;;;4.35;65.62;103404.84;5044672;28;20360;-64
2023/01/23 00:36:13;;;;;;;20.35;12.32;;;;;;;4.35;66.10;103411.97;5050095;28;20164;-64
2023/01/23 00:38:42;;;;;;;23.55;13.00;;;;;;;4.35;65.80;103418.16;5045572;28;20049;-63
2023/01/23 00:41:11;;;;;;;22.98;13.13;;;;;;;4.33;65.27;103417.41;5046254;28;20049;-63
2023/01/23 00:43:39;;;;;;;20.10;12.18;;;;;;;4.34;65.50;103420.94;5044063;28;20103;-63
2023/01/23 00:46:07;;;;;;;23.05;12.88;;;;;;;4.31;66.50;103424.69;5056392;28;20053;-64
2023/01/23 00:48:35;;;;;;;19.30;12.00;;;;;;;4.31;65.99;103426.50;5051239;28;20084;-64
2023/01/23 00:51:04;;;;;;;19.73;13.55;;;;;;;4.32;65.75;103434.34;5044897;28;20045;-64
2023/01/23 00:53:32;;;;;;;22.13;13.13;;;;;;;4.33;65.70;103429.88;5044748;28;20046;-64
2023/01/23 00:56:01;;;;;;;20.67;12.77;;;;;;;4.33;65.75;103432.53;5044397;28;20048;-64
2023/01/23 00:58:29;;;;;;;20.38;11.98;;;;;;;4.32;65.98;103438.84;5045845;28;20061;-64
2023/01/23 01:00:57;;;;;;;22.27;12.07;;;;;;;4.29;65.56;103426.59;5034914;28;20073;-64
2023/01/23 01:03:25;;;;;;;22.08;13.82;;;;;;;4.29;66.14;103425.75;5044295;28;20073;-64
2023/01/23 01:05:52;;;;;;;19.50;13.55;;;;;;;4.28;65.79;103427.56;5041640;28;20200;-64
2023/01/23 01:08:20;;;;;;;20.20;13.02;;;;;;;4.30;65.79;103424.78;5045429;28;20075;-64
2023/01/23 01:10:48;;;;;;;22.20;13.57;;;;;;;4.31;65.69;103416.69;5044221;28;20045;-64
2023/01/23 01:13:20;;;;;;;22.38;13.00;;;;;;;4.31;65.46;103408.69;5044826;28;20110;-64
2023/01/23 01:15:48;;;;;;;25.63;13.40;;;;;;;4.32;66.18;103418.38;5041062;28;20045;-64
2023/01/23 01:18:17;;;;;;;21.65;12.82;;;;;;;4.32;66.27;103420.19;5052340;28;20080;-64
2023/01/23 01:20:45;;;;;;;21.75;13.48;;;;;;;4.31;66.59;103421.16;5043601;28;20117;-64
2023/01/23 01:23:13;;;;;;;21.58;13.73;;;;;;;4.30;65.82;103422.97;5043404;28;20104;-64
2023/01/23 01:25:41;;;;;;;24.02;13.40;;;;;;;4.31;65.94;103427.34;5063008;28;20049;-64
2023/01/23 01:28:08;;;;;;;21.20;12.82;;;;;;;4.30;65.89;103424.78;5050862;28;20084;-64
2023/01/23 01:30:38;;;;;;;16.77;12.05;;;;;;;4.28;65.97;103424.91;5043569;28;20049;-64
2023/01/23 01:33:07;;;;;;;23.42;12.68;;;;;;;4.28;66.62;103427.56;5048175;28;20227;-64
2023/01/23 01:35:35;;;;;;;20.02;14.40;;;;;;;4.29;65.88;103431.94;5046273;28;20065;-64
2023/01/23 01:38:02;;;;;;;20.55;12.93;;;;;;;4.29;66.31;103431.94;5044390;28;20495;-65
2023/01/23 01:40:33;;;;;;;24.38;13.57;;;;;;;4.28;66.04;103434.72;5046158;28;20057;-64
2023/01/23 01:43:03;;;;;;;26.13;14.80;;;;;;;4.27;66.03;103438.34;5035321;28;20054;-64
2023/01/23 01:46:08;;;;;;;20.77;13.25;;;;;;;4.29;66.67;103433.75;5049245;28;20457;-64
2023/01/23 01:48:42;;;;;;;23.23;13.77;;;;;;;4.28;66.73;103440.03;5045194;28;20077;-64
2023/01/23 01:51:17;;;;;;;19.85;13.88;;;;;;;4.24;66.73;103440.28;5064077;28;20053;-64
2023/01/23 01:53:49;;;;;;;26.55;13.48;;;;;;;4.31;66.42;103440.66;5038769;28;20510;-64
2023/01/23 01:56:18;;;;;;;21.42;13.57;;;;;;;4.29;66.38;103442.59;5042410;28;20552;-65
2023/01/23 01:58:48;;;;;;;21.83;13.35;;;;;;;4.28;66.04;103440.88;5044965;28;20107;-64
2023/01/23 02:01:17;;;;;;;18.38;12.90;;;;;;;4.28;65.95;103440.03;5054687;28;20087;-65
2023/01/23 02:03:48;;;;;;;23.88;13.43;;;;;;;4.28;66.63;103435.56;5047373;28;20057;-65
2023/01/23 02:06:16;;;;;;;25.08;13.07;;;;;;;4.28;66.01;103440.03;5042527;28;20042;-65
2023/01/23 02:08:50;;;;;;;19.90;12.43;;;;;;;4.29;66.48;103444.41;5042819;28;20088;-65
2023/01/23 02:11:18;;;;;;;22.20;13.15;;;;;;;4.30;66.66;103433.63;5042415;28;20042;-65
2023/01/23 02:13:46;;;;;;;19.85;12.10;;;;;;;4.27;66.91;103439.19;5045386;28;20056;-65
2023/01/23 02:16:18;;;;;;;23.33;12.52;;;;;;;4.29;66.35;103437.25;5050235;28;20088;-65
2023/01/23 02:18:49;;;;;;;17.88;12.13;;;;;;;4.29;66.75;103445.25;5043755;28;20045;-65
2023/01/23 02:21:21;;;;;;;21.55;12.20;;;;;;;4.32;66.63;103442.34;5045748;28;20057;-65
2023/01/23 02:24:09;;;;;;;23.95;12.70;;;;;;;4.31;66.64;103434.47;5037334;28;20048;-65
2023/01/23 02:26:40;;;;;;;21.85;12.90;;;;;;;4.32;66.39;103437.03;5050090;28;20109;-65
2023/01/23 02:29:08;;;;;;;23.98;13.95;;;;;;;4.32;65.99;103430.84;5047618;28;20128;-65
2023/01/23 02:31:37;;;;;;;20.58;13.27;;;;;;;4.34;66.56;103439.56;5040821;28;20128;-65
2023/01/23 02:34:05;;;;;;;19.63;12.60;;;;;;;4.32;66.10;103429.03;5049393;28;20037;-65
2023/01/23 02:36:35;;;;;;;18.52;12.18;;;;;;;4.34;66.47;103435.09;5040800;28;20045;-65
2023/01/23 02:39:06;;;;;;;25.65;13.48;;;;;;;4.32;66.28;103438.84;5041186;28;20049;-65
2023/01/23 02:41:36;;;;;;;23.27;13.05;;;;;;;4.26;66.03;103418.84;5045259;28;20105;-65
2023/01/23 02:44:12;;;;;;;20.80;12.27;;;;;;;4.31;66.71;103429.16;5047414;28;20124;-65
2023/01/23 02:46:40;;;;;;;24.52;12.50;;;;;;;4.29;66.44;103434.59;5057053;28;20547;-65
2023/01/23 02:49:08;;;;;;;28.90;13.57;;;;;;;4.29;66.06;103434.59;5055295;28;20136;-65
2023/01/23 02:51:36;;;;;;;19.60;12.63;;;;;;;4.29;66.95;103431.09;5051868;28;20053;-65
2023/01/23 02:54:04;;;;;;;22.05;12.13;;;;;;;4.27;66.93;103425.03;5042397;28;20077;-65
2023/01/23 02:56:32;;;;;;;19.60;13.23;;;;;;;4.27;66.21;103428.53;5043651;28;20101;-65
2023/01/23 03:01:47;;;;;;;18.40;13.20;;;;;;;4.22;67.19;103426.22;5041218;28;20057;-65
2023/01/23 03:04:15;;;;;;;25.65;13.40;;;;;;;4.27;66.16;103433.00;5032324;28;20045;-65
2023/01/23 03:06:42;;;;;;;23.38;13.18;;;;;;;4.21;66.39;103424.53;5044672;28;20057;-65
2023/01/23 03:09:12;;;;;;;21.58;13.52;;;;;;;4.24;66.33;103432.28;5037832;28;20563;-66
2023/01/23 03:11:41;;;;;;;20.25;11.95;;;;;;;4.22;66.50;103426.22;5044662;28;20056;-65
2023/01/23 03:14:11;;;;;;;25.30;13.00;;;;;;;4.23;66.86;103429.75;5049120;28;20048;-65
2023/01/23 03:16:40;;;;;;;25.52;12.43;;;;;;;4.22;67.42;103433.38;5041014;28;20055;-65
2023/01/23 03:19:10;;;;;;;17.88;11.68;;;;;;;4.23;66.66;103430.59;5042139;28;20133;-65
2023/01/23 03:21:40;;;;;;;24.40;13.15;;;;;;;4.20;66.58;103435.28;5033277;28;20062;-65
2023/01/23 03:24:09;;;;;;;21.15;12.80;;;;;;;4.22;66.60;103438.69;5045169;28;20053;-65
2023/01/23 03:26:38;;;;;;;22.65;13.75;;;;;;;4.23;66.93;103443.03;5049070;28;20041;-65
2023/01/23 03:31:52;;;;;;;22.45;12.80;;;;;;;4.23;66.59;103435.06;5042026;28;20092;-65
2023/01/23 03:34:21;;;;;;;23.10;12.98;;;;;;;4.21;66.79;103439.66;5046095;28;20052;-65
2023/01/23 03:36:49;;;;;;;22.52;13.70;;;;;;;4.22;66.76;103438.69;5044852;28;20139;-65
2023/01/23 03:42:02;;;;;;;23.77;12.85;;;;;;;4.23;66.87;103446.56;5038208;28;20505;-65
2023/01/23 03:44:30;;;;;;;23.55;13.48;;;;;;;4.20;67.52;103444.13;5043365;28;20088;-65
2023/01/23 03:46:59;;;;;;;21.00;13.68;;;;;;;4.23;66.74;103451.03;5052140;28;20049;-65
2023/01/23 03:49:28;;;;;;;21.10;13.38;;;;;;;4.21;66.87;103443.16;5047324;28;20112;-65
2023/01/23 03:51:56;;;;;;;21.90;12.02;;;;;;;4.20;67.06;103441.47;5043844;28;20053;-65
2023/01/23 03:54:24;;;;;;;27.27;13.85;;;;;;;4.22;66.66;103441.34;5046111;28;20068;-65
2023/01/23 03:56:51;;;;;;;27.25;13.63;;;;;;;4.21;66.88;103442.31;5046246;28;20053;-64
2023/01/23 03:59:19;;;;;;;23.58;13.55;;;;;;;4.20;66.77;103435.28;5041200;28;20136;-66
2023/01/23 04:01:47;;;;;;;20.48;13.15;;;;;;;4.22;66.76;103444.00;5044297;28;20045;-64
2023/01/23 04:04:15;;;;;;;22.73;13.70;;;;;;;4.22;66.98;103438.69;5033345;28;20511;-65
2023/01/23 04:06:44;;;;;;;23.63;13.40;;;;;;;4.23;66.78;103451.03;5042957;28;20158;-65
2023/01/23 04:09:12;;;;;;;21.55;13.60;;;;;;;4.21;67.38;103456.47;5039772;28;20060;-65
2023/01/23 04:11:40;;;;;;;20.38;12.63;;;;;;;4.20;67.51;103444.13;5039841;28;20069;-65
2023/01/23 04:14:08;;;;;;;22.95;13.27;;;;;;;4.19;67.24;103444.25;5051029;28;20127;-65
2023/01/23 04:16:35;;;;;;;21.88;13.20;;;;;;;4.19;67.04;103442.44;5045878;28;20051;-65
2023/01/23 04:19:03;;;;;;;22.67;13.00;;;;;;;4.09;67.24;103425.47;5046271;28;20136;-65
2023/01/23 04:21:31;;;;;;;20.60;12.65;;;;;;;4.19;67.51;103436.25;5042995;28;20067;-65
2023/01/23 04:24:00;;;;;;;26.35;13.75;;;;;;;4.20;66.96;103443.28;5059488;28;20078;-65
2023/01/23 04:26:28;;;;;;;22.17;13.70;;;;;;;4.19;67.32;103442.44;5044927;28;20049;-65
2023/01/23 04:28:55;;;;;;;21.30;12.98;;;;;;;4.21;67.10;103451.16;5052744;28;20109;-65
2023/01/23 04:31:24;;;;;;;21.05;13.50;;;;;;;4.22;67.40;103454.66;5042647;28;20045;-65
2023/01/23 04:33:51;;;;;;;27.02;14.50;;;;;;;4.20;67.13;103445.94;5033798;28;20068;-65
2023/01/23 04:36:19;;;;;;;22.10;14.50;;;;;;;4.21;67.74;103447.63;5036838;28;20579;-65
2023/01/23 04:38:47;;;;;;;22.55;13.48;;;;;;;4.21;66.83;103447.63;5042271;28;20056;-64
2023/01/23 04:41:19;;;;;;;22.30;13.73;;;;;;;4.12;67.28;103435.88;5038459;28;20113;-65
2023/01/23 04:43:47;;;;;;;22.17;13.88;;;;;;;4.20;67.39;103452.13;5041900;28;20176;-65
2023/01/23 04:46:15;;;;;;;19.95;13.38;;;;;;;4.20;67.54;103454.78;5041282;28;20068;-65
2023/01/23 04:48:43;;;;;;;20.70;13.10;;;;;;;4.20;67.51;103453.94;5044513;28;20370;-65
2023/01/23 04:51:11;;;;;;;19.88;13.05;;;;;;;4.19;67.24;103463.72;5038945;28;20073;-65
2023/01/23 04:53:39;;;;;;;21.42;12.98;;;;;;;4.20;67.24;103459.25;5045511;28;20053;-65
2023/01/23 04:56:07;;;;;;;28.17;14.65;;;;;;;4.22;67.16;103467.97;5038193;28;20049;-65
2023/01/23 04:58:36;;;;;;;24.17;13.63;;;;;;;4.22;67.69;103457.31;5048390;28;20072;-65
2023/01/23 05:01:05;;;;;;;20.95;13.15;;;;;;;4.21;67.38;103464.44;5043928;28;20060;-65
2023/01/23 05:03:33;;;;;;;22.05;13.52;;;;;;;4.23;67.16;103459.00;5040016;28;20064;-65
2023/01/23 05:06:01;;;;;;;23.85;13.73;;;;;;;4.16;68.12;103461.28;5054132;28;20049;-65
2023/01/23 05:08:29;;;;;;;23.70;13.43;;;;;;;4.16;68.23;103460.44;5051979;28;20042;-65
2023/01/23 05:10:57;;;;;;;22.45;13.80;;;;;;;4.18;67.36;103461.19;5043438;28;20049;-65
2023/01/23 05:13:25;;;;;;;20.35;13.57;;;;;;;4.16;68.16;103469.28;5047375;28;20077;-65
2023/01/23 05:15:54;;;;;;;25.95;15.00;;;;;;;4.16;67.49;103479.91;5045624;28;20180;-65
2023/01/23 05:18:21;;;;;;;23.92;13.90;;;;;;;4.18;67.80;103472.66;5046192;28;20119;-65
2023/01/23 05:20:49;;;;;;;25.05;14.02;;;;;;;4.17;68.09;103468.31;5046428;28;20049;-65
2023/01/23 05:23:17;;;;;;;25.83;14.52;;;;;;;4.18;68.11;103470.00;5050001;28;20060;-65
2023/01/23 05:25:45;;;;;;;23.67;14.05;;;;;;;4.16;67.83;103468.44;5051769;28;20140;-65
2023/01/23 05:28:13;;;;;;;21.70;13.65;;;;;;;4.19;67.82;103474.38;5047038;28;20049;-65
2023/01/23 05:30:40;;;;;;;22.75;14.25;;;;;;;4.20;67.73;103484.06;5045162;28;20105;-65
2023/01/23 05:33:10;;;;;;;24.58;14.15;;;;;;;4.22;68.04;103479.47;5047003;28;20041;-65
2023/01/23 05:35:39;;;;;;;21.35;14.23;;;;;;;4.22;67.81;103482.13;5034524;28;20113;-64
2023/01/23 05:38:06;;;;;;;21.80;14.27;;;;;;;4.22;67.89;103490.09;5041498;28;20042;-65
2023/01/23 05:40:34;;;;;;;20.88;14.23;;;;;;;4.24;67.93;103488.19;5043746;28;20129;-65
2023/01/23 05:43:02;;;;;;;21.58;14.43;;;;;;;4.25;67.30;103473.06;5042584;28;20060;-64
2023/01/23 05:45:30;;;;;;;28.08;14.65;;;;;;;4.22;67.87;103479.47;5039268;28;20144;-65
2023/01/23 05:47:57;;;;;;;21.08;14.25;;;;;;;4.22;67.57;103486.59;5046056;28;20076;-64
2023/01/23 05:50:27;;;;;;;21.95;13.07;;;;;;;4.23;67.99;103481.16;5048111;28;20124;-65
2023/01/23 05:52:54;;;;;;;22.10;14.23;;;;;;;4.22;67.75;103500.75;5052377;28;20073;-65
2023/01/23 05:55:22;;;;;;;21.67;13.60;;;;;;;4.22;67.66;103506.06;5047910;28;20057;-65
2023/01/23 05:57:50;;;;;;;22.33;13.65;;;;;;;4.22;67.96;103503.41;5048610;28;20053;-64
2023/01/23 06:00:19;;;;;;;21.27;14.25;;;;;;;4.21;68.19;103506.19;5049792;28;20133;-65
2023/01/23 06:02:47;;;;;;;24.58;15.20;;;;;;;4.22;67.34;103508.75;5040636;28;20060;-65
2023/01/23 06:05:15;;;;;;;22.60;13.25;;;;;;;4.20;68.47;103502.69;5041482;28;20057;-68
2023/01/23 06:07:44;;;;;;;24.88;14.50;;;;;;;4.33;67.91;103513.25;5046198;28;20078;-65
2023/01/23 06:10:12;;;;;;;21.35;12.77;;;;;;;4.46;66.62;103507.84;5038898;28;20107;-65
2023/01/23 06:12:39;;;;;;;21.13;13.25;;;;;;;4.64;66.84;103502.94;5043389;28;20049;-65
2023/01/23 06:15:08;;;;;;;19.73;13.68;;;;;;;4.79;66.19;103505.28;5041274;28;20057;-65
2023/01/23 06:17:35;;;;;;;26.60;13.52;;;;;;;4.96;65.61;103503.13;5045867;28;20073;-65
2023/01/23 06:20:06;;;;;;;23.85;14.13;;;;;;;5.10;65.05;103501.06;5052552;28;20041;-66
2023/01/23 06:22:33;;;;;;;22.67;13.35;;;;;;;5.27;64.41;103501.50;5043945;28;20076;-62
2023/01/23 06:25:03;;;;;;;20.48;12.45;;;;;;;5.39;63.61;103504.06;5043723;28;20046;-65
2023/01/23 06:27:31;;;;;;;20.30;12.63;;;;;;;5.48;63.69;103510.47;5044770;28;20045;-62
2023/01/23 06:29:58;;;;;;;29.02;13.77;;;;;;;5.56;63.23;103514.22;5044636;28;20046;-65
2023/01/23 06:32:26;;;;;;;20.52;14.10;;;;;;;5.65;63.29;103515.28;5052997;28;20052;-64
2023/01/23 06:34:54;;;;;;;26.70;14.88;;;;;;;5.73;62.77;103512.84;5048674;28;20076;-65
2023/01/23 06:37:22;;;;;;;17.92;12.07;;;;;;;5.73;62.98;103512.84;5052725;28;20113;-63
2023/01/23 06:39:49;;;;;;;21.55;13.30;;;;;;;5.71;62.83;103512.13;5042069;28;20077;-65
2023/01/23 06:42:18;;;;;;;20.70;13.32;;;;;;;5.62;63.08;103515.53;5042132;28;20045;-65
2023/01/23 06:44:46;;;;;;;24.35;13.20;;;;;;;5.46;63.24;103510.59;5049376;28;20060;-66
2023/01/23 06:47:15;;;;;;;20.65;12.65;;;;;;;5.32;64.40;103510.00;5047383;28;20139;-66
2023/01/23 06:49:43;;;;;;;23.90;13.30;;;;;;;5.20;64.12;103511.84;4690779;28;10000080;-65
2023/01/23 06:52:11;;;;;;;20.42;12.63;;;;;;;5.02;64.40;103498.16;5040550;28;20057;-65
2023/01/23 06:54:38;;;;;;;19.45;12.98;;;;;;;5.03;64.74;103518.50;5036535;28;20546;-66
2023/01/23 06:57:06;;;;;;;20.02;13.48;;;;;;;4.95;64.99;103517.41;5037596;28;20049;-65
2023/01/23 06:59:36;;;;;;;21.90;13.70;;;;;;;4.87;65.29;103520.66;5041194;28;20052;-64
2023/01/23 07:02:04;;;;;;;19.02;13.65;;;;;;;4.86;65.61;103530.47;5031773;28;20047;-65
2023/01/23 07:04:32;;;;;;;25.25;14.00;;;;;;;4.82;65.75;103529.00;5042207;28;20411;-68
2023/01/23 07:07:00;;;;;;;23.50;14.48;;;;;;;4.81;65.82;103540.63;5040119;28;20092;-66
2023/01/23 07:09:28;;;;;;;22.30;15.05;;;;;;;4.78;65.86;103537.34;5036938;28;20081;-67
2023/01/23 07:11:56;;;;;;;23.67;13.88;;;;;;;4.74;66.39;103533.22;5040273;28;20060;-66
2023/01/23 07:14:25;;;;;;;21.23;13.65;;;;;;;4.68;66.22;103539.88;5038837;28;20506;-65
2023/01/23 07:16:55;;;;;;;23.08;13.68;;;;;;;4.66;66.47;103547.13;5039018;28;20077;-67
2023/01/23 07:19:23;;;;;;;22.10;14.10;;;;;;;4.63;66.35;103543.84;5038109;28;20144;-67
2023/01/23 07:21:50;;;;;;;20.83;12.68;;;;;;;4.61;66.30;103548.44;5045006;28;20124;-66
2023/01/23 07:24:18;;;;;;;25.30;13.98;;;;;;;4.60;66.79;103558.25;5059559;28;20087;-66
2023/01/23 07:26:46;;;;;;;24.42;14.70;;;;;;;4.58;66.44;103557.53;5042354;28;20056;-65
2023/01/23 07:29:14;;;;;;;23.27;14.10;;;;;;;4.56;67.01;103552.31;5038157;28;20113;-65
2023/01/23 07:31:41;;;;;;;23.25;13.35;;;;;;;4.56;66.90;103554.13;5040343;28;20086;-65
2023/01/23 07:34:11;;;;;;;22.58;13.07;;;;;;;4.52;66.58;103550.00;5033193;28;20053;-63
2023/01/23 07:36:38;;;;;;;21.25;13.73;;;;;;;4.52;66.49;103556.19;5032971;28;20063;-64
2023/01/23 07:39:06;;;;;;;22.10;13.90;;;;;;;4.50;67.00;103562.59;5034082;28;20467;-64
2023/01/23 07:41:34;;;;;;;21.75;14.02;;;;;;;4.49;67.27;103559.06;5034110;28;20049;-63
2023/01/23 07:44:02;;;;;;;22.85;13.13;;;;;;;4.37;67.24;103557.31;5037296;28;20373;-66
2023/01/23 07:46:29;;;;;;;22.63;14.48;;;;;;;4.47;66.65;103576.13;5034681;28;20076;-68
2023/01/23 07:48:57;;;;;;;19.88;13.65;;;;;;;4.47;67.07;103578.78;5042613;28;20049;-64
2023/01/23 07:51:26;;;;;;;23.27;14.52;;;;;;;4.46;67.56;103580.59;5033435;28;20579;-64
2023/01/23 07:53:54;;;;;;;23.17;13.48;;;;;;;4.46;66.89;103580.59;4685893;28;10000420;-64
2023/01/23 07:56:22;;;;;;;20.33;14.13;;;;;;;4.44;66.90;103587.84;5033612;28;20077;-64
2023/01/23 07:58:50;;;;;;;17.87;12.00;;;;;;;4.44;67.54;103582.53;5044799;28;20143;-65
2023/01/23 08:01:19;;;;;;;25.55;13.93;;;;;;;4.44;66.95;103582.53;5039733;28;20049;-65
2023/01/23 08:03:46;;;;;;;20.95;14.07;;;;;;;4.43;67.49;103580.84;5028206;28;20047;-64
2023/01/23 08:06:14;;;;;;;23.17;15.02;;;;;;;4.43;67.68;103587.97;5034941;28;20071;-68
2023/01/23 08:08:43;;;;;;;25.73;14.50;;;;;;;4.42;67.53;103592.44;5034478;28;20073;-64
2023/01/23 08:11:12;;;;;;;22.30;14.65;;;;;;;4.43;67.01;103587.97;5039171;28;20077;-64
2023/01/23 08:13:40;;;;;;;21.52;13.93;;;;;;;4.43;67.74;103587.97;5033882;28;20069;-65
2023/01/23 08:16:08;;;;;;;21.13;13.15;;;;;;;4.43;67.96;103587.97;5038176;28;20053;-64
2023/01/23 08:18:40;;;;;;;20.25;13.85;;;;;;;4.42;67.96;103587.13;5043628;28;20055;-65
2023/01/23 08:21:07;;;;;;;21.27;13.65;;;;;;;4.44;67.45;103595.00;5042058;28;20042;-66
2023/01/23 08:23:35;;;;;;;23.50;12.85;;;;;;;4.43;67.06;103591.47;5037834;28;20041;-66
2023/01/23 08:26:07;;;;;;;22.83;13.77;;;;;;;4.45;67.94;103597.53;5036711;28;20203;-65
2023/01/23 08:28:35;;;;;;;19.55;12.90;;;;;;;4.43;67.80;103593.28;5041830;28;20115;-65
2023/01/23 08:31:06;;;;;;;19.65;13.15;;;;;;;4.44;67.30;103597.66;5039676;28;20073;-64
2023/01/23 08:33:34;;;;;;;20.13;12.38;;;;;;;4.44;67.24;103593.19;5036854;28;20060;-65
2023/01/23 08:36:02;;;;;;;18.85;12.80;;;;;;;4.44;67.20;103606.50;5054928;28;20080;-63
2023/01/23 08:38:30;;;;;;;22.38;13.80;;;;;;;4.44;67.67;103595.84;5049443;28;20120;-64
2023/01/23 08:40:59;;;;;;;19.13;13.27;;;;;;;4.46;67.46;103601.06;5056195;28;20129;-64
2023/01/23 08:43:29;;;;;;;22.88;13.35;;;;;;;4.46;67.64;103599.25;5041457;28;20064;-64
2023/01/23 08:45:59;;;;;;;22.60;12.98;;;;;;;4.46;67.79;103601.91;5041714;28;20064;-68
2023/01/23 08:48:28;;;;;;;19.88;13.48;;;;;;;4.54;67.69;103610.16;5036000;28;20049;-64
2023/01/23 08:51:00;;;;;;;20.98;13.20;;;;;;;4.70;66.78;103611.69;5044225;28;20049;-63
2023/01/23 08:53:29;;;;;;;20.65;13.77;;;;;;;4.86;66.38;103617.56;5047737;28;20055;-63
2023/01/23 08:55:59;;;;;;;24.88;13.77;;;;;;;4.97;66.13;103622.91;5060092;28;20076;-63
2023/01/23 08:58:29;;;;;;;17.63;11.70;;;;;;;5.17;64.95;103611.56;5033196;28;20075;-66
2023/01/23 09:00:57;;;;;;;26.42;14.93;;;;;;;5.16;65.15;103615.22;5045447;28;20081;-66
2023/01/23 09:03:25;;;;;;;21.58;13.60;;;;;;;5.40;64.30;103612.44;5065950;28;20049;-66
2023/01/23 09:05:53;;;;;;;21.48;13.07;;;;;;;5.65;63.71;103621.16;5040677;28;20053;-66
2023/01/23 09:08:21;;;;;;;18.90;12.10;;;;;;;5.84;62.74;103613.38;5054203;28;20056;-66
2023/01/23 09:10:48;;;;;;;19.25;12.95;;;;;;;5.92;62.69;103615.47;5061116;28;20049;-66
2023/01/23 09:13:18;;;;;;;19.60;12.63;;;;;;;6.05;62.69;103613.50;5044886;28;20459;-67
2023/01/23 09:15:47;;;;;;;21.65;12.38;;;;;;;6.12;62.14;103612.91;5052606;28;20049;-66
2023/01/23 09:18:15;;;;;;;20.75;12.55;;;;;;;6.22;61.86;103618.34;5065752;28;20049;-66
2023/01/23 09:20:43;;;;;;;17.92;11.77;;;;;;;6.29;61.66;103618.69;5050648;28;20048;-66
2023/01/23 09:23:10;;;;;;;21.27;11.32;;;;;;;6.32;61.25;103621.09;5065833;28;20088;-66
2023/01/23 09:25:39;;;;;;;24.73;13.55;;;;;;;6.33;61.25;103620.13;5040787;28;20056;-66
2023/01/23 09:28:06;;;;;;;17.48;11.85;;;;;;;6.35;61.25;103613.69;5062705;28;20333;-66
2023/01/23 09:30:35;;;;;;;17.65;11.23;;;;;;;6.36;61.34;103617.22;5041533;28;20041;-67
2023/01/23 09:33:04;;;;;;;16.65;11.63;;;;;;;6.33;61.21;103610.28;5036039;28;20068;-66
2023/01/23 09:35:32;;;;;;;18.08;12.13;;;;;;;6.18;61.31;103606.22;5048865;28;20131;-66
2023/01/23 09:38:00;;;;;;;23.98;13.43;;;;;;;6.02;62.67;103597.75;5065137;28;20084;-66
2023/01/23 09:40:34;;;;;;;23.73;12.15;;;;;;;5.85;62.81;103609.75;5048792;28;20159;-66
2023/01/23 09:43:12;;;;;;;17.17;12.25;;;;;;;5.68;63.33;103610.25;5059647;28;20175;-66
2023/01/23 09:45:43;;;;;;;22.45;12.85;;;;;;;5.50;64.45;103615.22;5039555;28;20464;-64
2023/01/23 09:48:20;;;;;;;19.20;12.13;;;;;;;5.53;64.51;103614.97;5051980;28;20045;-65
2023/01/23 09:50:56;;;;;;;17.42;11.93;;;;;;;5.67;64.01;103613.88;5045893;28;20073;-65
2023/01/23 09:53:30;;;;;;;20.42;12.93;;;;;;;5.80;63.36;103623.47;5042385;28;20071;-65
2023/01/23 09:56:04;;;;;;;18.80;12.05;;;;;;;5.98;62.80;103615.84;5047315;28;20080;-65
2023/01/23 09:58:36;;;;;;;18.08;11.60;;;;;;;6.17;62.16;103617.88;5041849;28;20117;-65
2023/01/23 10:01:04;;;;;;;20.60;13.05;;;;;;;6.36;61.53;103614.53;5040197;28;20052;-65
2023/01/23 10:03:34;;;;;;;16.52;11.57;;;;;;;6.48;61.20;103622.38;5033801;28;20054;-65
2023/01/23 10:06:16;;;;;;;16.80;12.13;;;;;;;6.62;60.82;103631.09;5059945;28;20083;-65
2023/01/23 10:08:57;;;;;;;18.92;12.55;;;;;;;6.65;60.94;103629.00;5046598;28;20088;-65
2023/01/23 10:11:35;;;;;;;16.63;12.32;;;;;;;6.73;60.35;103629.22;5042357;28;20048;-65
2023/01/23 10:14:24;;;;;;;16.33;10.68;;;;;;;6.73;60.57;103631.03;5056743;28;20482;-65
2023/01/23 10:17:02;;;;;;;17.73;11.52;;;;;;;6.76;60.41;103625.44;5042591;28;20056;-65
2023/01/23 10:19:43;;;;;;;18.83;12.07;;;;;;;6.71;60.15;103627.66;5056349;28;20112;-65
2023/01/23 10:22:25;;;;;;;17.08;11.40;;;;;;;6.74;60.40;103635.41;5044295;28;20045;-65
2023/01/23 10:24:55;;;;;;;15.63;10.25;;;;;;;6.73;60.23;103639.91;5041058;28;20136;-65
2023/01/23 10:27:26;;;;;;;18.02;11.93;;;;;;;6.73;60.06;103633.72;5047062;28;20133;-65
2023/01/23 10:29:59;;;;;;;18.73;11.63;;;;;;;6.79;60.34;103627.84;5036901;28;20095;-65
2023/01/23 10:32:30;;;;;;;15.50;10.98;;;;;;;6.82;60.36;103636.47;5043898;28;20540;-66
2023/01/23 10:35:05;;;;;;;17.92;11.50;;;;;;;6.87;60.06;103632.56;4701036;28;9999891;-67
2023/01/23 10:37:46;;;;;;;16.75;11.02;;;;;;;6.80;60.13;103638.41;5042923;28;20151;-66
2023/01/23 10:40:16;;;;;;;18.10;11.70;;;;;;;6.81;60.20;103637.44;5037220;28;20394;-66
2023/01/23 10:42:43;;;;;;;15.90;11.73;;;;;;;6.85;59.86;103630.00;5039640;28;20088;-66
2023/01/23 10:45:18;;;;;;;17.40;11.80;;;;;;;6.93;59.59;103624.00;5035338;28;20085;-65
2023/01/23 10:47:48;;;;;;;19.20;11.80;;;;;;;6.95;59.98;103630.03;5042139;28;20041;-68
2023/01/23 10:50:35;;;;;;;16.95;10.73;;;;;;;6.95;60.04;103627.38;5038347;28;20056;-65
2023/01/23 10:53:07;;;;;;;20.85;10.90;;;;;;;6.96;59.67;103627.25;5041393;28;20049;-66
2023/01/23 10:55:35;;;;;;;17.08;11.60;;;;;;;6.95;59.68;103630.91;5038104;28;20049;-65
2023/01/23 10:58:05;;;;;;;16.77;11.32;;;;;;;6.98;59.84;103630.63;5043119;28;20052;-65
2023/01/23 11:00:36;;;;;;;17.63;12.13;;;;;;;7.01;59.94;103632.19;5035047;28;20060;-65
2023/01/23 11:03:31;;;;;;;17.20;10.70;;;;;;;6.98;59.87;103627.97;5048766;28;20132;-65
2023/01/23 11:06:04;;;;;;;17.30;11.40;;;;;;;6.93;59.63;103624.88;5046703;28;20049;-64
2023/01/23 11:08:37;;;;;;;15.93;10.65;;;;;;;6.81;59.96;103626.75;5038661;28;20136;-63
2023/01/23 11:11:23;;;;;;;16.65;11.13;;;;;;;6.63;60.99;103622.94;5033886;28;20559;-63
2023/01/23 11:14:04;;;;;;;17.30;11.83;;;;;;;6.42;61.42;103624.72;5039142;28;20096;-64
2023/01/23 11:16:32;;;;;;;16.60;11.65;;;;;;;6.24;62.24;103632.41;5038472;28;20339;-64
2023/01/23 11:19:10;;;;;;;15.35;11.25;;;;;;;6.11;62.41;103623.69;5044167;28;20229;-63
2023/01/23 11:21:52;;;;;;;15.25;11.32;;;;;;;6.17;62.79;103623.19;5033109;28;20061;-63
2023/01/23 11:24:21;;;;;;;16.63;11.52;;;;;;;6.26;62.03;103621.59;5040886;28;20048;-63
2023/01/23 11:27:15;;;;;;;15.93;11.15;;;;;;;6.45;61.99;103619.13;5040042;28;20068;-63
2023/01/23 11:30:07;;;;;;;15.60;10.77;;;;;;;6.60;61.11;103611.66;5036643;28;20057;-65
2023/01/23 11:32:46;;;;;;;16.27;11.40;;;;;;;6.74;61.00;103614.03;5028620;28;20064;-63
2023/01/23 11:35:16;;;;;;;16.40;11.02;;;;;;;6.92;60.40;103623.16;5045856;28;20410;-63
2023/01/23 11:37:45;;;;;;;17.67;12.20;;;;;;;6.85;60.46;103617.50;5049663;28;20061;-62